createdAt,value
2022-12-04T00:00:52.443Z,93.18
2022-12-04T00:03:19.244Z,92.08
2022-12-04T00:05:46.094Z,94.71
2022-12-04T00:08:12.977Z,95.13
2022-12-04T00:10:44.113Z,94.28
2022-12-04T00:13:10.938Z,94.01
2022-12-04T00:15:41.340Z,93.04
2022-12-04T00:18:08.101Z,95.24
2022-12-04T00:20:35.310Z,92.93
2022-12-04T00:23:02.016Z,95.53
2022-12-04T00:25:30.759Z,93.12
2022-12-04T00:27:57.624Z,94.95
2022-12-04T00:30:24.406Z,95.15
2022-12-04T00:32:51.146Z,94.87
2022-12-04T00:35:18.001Z,94.20
2022-12-04T00:37:44.708Z,95.52
2022-12-04T00:40:11.811Z,93.75
2022-12-04T00:42:38.590Z,90.74
2022-12-04T00:45:05.539Z,94.06
2022-12-04T00:47:32.303Z,93.08
2022-12-04T00:49:59.068Z,92.27
2022-12-04T00:52:25.864Z,94.63
2022-12-04T00:54:52.641Z,96.02
2022-12-04T00:57:19.420Z,94.28
2022-12-04T00:59:46.125Z,95.10
2022-12-04T01:02:12.895Z,96.74
2022-12-04T01:04:39.666Z,96.71
2022-12-04T01:07:06.507Z,96.07
2022-12-04T01:09:33.634Z,94.51
2022-12-04T01:12:00.394Z,93.67
2022-12-04T01:14:27.191Z,95.60
2022-12-04T01:16:54.278Z,95.17
2022-12-04T01:19:21.104Z,96.31
2022-12-04T01:21:47.832Z,96.56
2022-12-04T01:24:14.631Z,95.15
2022-12-04T01:26:41.376Z,95.99
2022-12-04T01:29:08.099Z,96.07
2022-12-04T01:31:34.849Z,96.09
2022-12-04T01:34:01.736Z,96.16
2022-12-04T01:36:28.891Z,97.17
2022-12-04T01:38:55.970Z,96.77
2022-12-04T01:41:26.951Z,98.76
2022-12-04T01:44:09.091Z,97.23
2022-12-04T01:46:35.864Z,99.91
2022-12-04T01:49:03.202Z,99.58
2022-12-04T01:51:41.312Z,99.19
2022-12-04T01:54:11.419Z,99.60
2022-12-04T01:56:52.626Z,98.73
2022-12-04T01:59:21.548Z,98.66
2022-12-04T02:01:56.402Z,97.91
2022-12-04T02:04:23.378Z,97.00
2022-12-04T02:06:50.191Z,95.92
2022-12-04T02:09:20.459Z,97.51
2022-12-04T02:12:03.593Z,98.28
2022-12-04T02:14:30.334Z,100.00
2022-12-04T02:17:04.974Z,100.00
2022-12-04T02:19:49.563Z,98.46
2022-12-04T02:22:35.200Z,100.00
2022-12-04T02:25:16.620Z,99.72
2022-12-04T02:28:06.636Z,100.00
2022-12-04T02:30:36.127Z,99.98
2022-12-04T02:33:03.138Z,100.00
2022-12-04T02:35:41.296Z,100.00
2022-12-04T02:38:14.255Z,98.62
2022-12-04T02:40:59.653Z,100.00
2022-12-04T02:43:46.379Z,100.00
2022-12-04T02:46:27.605Z,97.67
2022-12-04T02:48:57.212Z,100.00
2022-12-04T02:51:26.820Z,100.00
2022-12-04T02:53:57.271Z,100.00
2022-12-04T02:56:26.863Z,100.00
2022-12-04T02:58:59.027Z,99.11
2022-12-04T03:01:29.799Z,99.36
2022-12-04T03:03:56.645Z,100.00
2022-12-04T03:06:25.066Z,98.91
2022-12-04T03:08:55.919Z,98.08
2022-12-04T03:11:22.918Z,99.01
2022-12-04T03:14:00.346Z,99.48
2022-12-04T03:16:33.088Z,100.00
2022-12-04T03:19:04.677Z,98.78
2022-12-04T03:21:38.237Z,95.68
2022-12-04T03:24:14.152Z,97.39
2022-12-04T03:26:43.801Z,97.07
2022-12-04T03:29:22.898Z,97.89
2022-12-04T03:31:51.917Z,95.53
2022-12-04T03:34:27.085Z,96.31
2022-12-04T03:36:59.180Z,97.54
2022-12-04T03:39:39.283Z,96.90
2022-12-04T03:42:10.855Z,95.95
2022-12-04T03:44:40.390Z,98.50
2022-12-04T03:47:25.948Z,97.54
2022-12-04T03:49:55.842Z,97.30
2022-12-04T03:52:26.234Z,96.02
2022-12-04T03:54:57.817Z,95.84
2022-12-04T03:57:27.711Z,95.96
2022-12-04T04:00:06.154Z,95.13
2022-12-04T04:02:34.922Z,97.46
2022-12-04T04:05:02.933Z,97.30
2022-12-04T04:07:35.877Z,97.06
2022-12-04T04:10:06.149Z,97.77
2022-12-04T04:12:37.024Z,98.14
2022-12-04T04:15:28.488Z,98.10
2022-12-04T04:18:16.334Z,98.46
2022-12-04T04:21:21.747Z,96.20
2022-12-04T04:24:10.374Z,97.35
2022-12-04T04:26:40.745Z,97.78
2022-12-04T04:29:09.082Z,94.51
2022-12-04T04:31:53.039Z,98.36
2022-12-04T04:34:24.933Z,99.70
2022-12-04T04:37:01.031Z,98.36
2022-12-04T04:39:33.414Z,100.00
2022-12-04T04:42:06.817Z,99.11
2022-12-04T04:44:39.718Z,98.94
2022-12-04T04:47:07.646Z,99.03
2022-12-04T04:49:35.256Z,100.00
2022-12-04T04:52:02.680Z,100.00
2022-12-04T04:54:31.370Z,99.52
2022-12-04T04:56:58.137Z,97.58
2022-12-04T04:59:24.930Z,97.06
2022-12-04T05:01:52.046Z,100.00
2022-12-04T05:04:18.929Z,99.47
2022-12-04T05:06:45.707Z,100.00
2022-12-04T05:09:12.500Z,94.43
2022-12-04T05:11:39.211Z,96.21
2022-12-04T05:14:06.439Z,95.39
2022-12-04T05:16:33.515Z,95.43
2022-12-04T05:19:18.828Z,95.57
2022-12-04T05:21:45.567Z,96.69
2022-12-04T05:24:12.313Z,95.94
2022-12-04T05:26:39.116Z,98.49
2022-12-04T05:29:06.065Z,99.39
2022-12-04T05:31:32.976Z,97.69
2022-12-04T05:33:59.793Z,97.54
2022-12-04T05:36:26.568Z,97.66
2022-12-04T05:38:53.307Z,95.92
2022-12-04T05:41:20.060Z,95.25
2022-12-04T05:43:46.947Z,95.55
2022-12-04T05:46:13.758Z,94.23
2022-12-04T05:48:40.581Z,96.85
2022-12-04T05:51:08.256Z,96.88
2022-12-04T05:53:35.144Z,97.31
2022-12-04T05:56:02.753Z,96.66
2022-12-04T05:58:29.653Z,94.40
2022-12-04T06:00:56.380Z,96.55
2022-12-04T06:03:23.331Z,94.63
2022-12-04T06:05:50.196Z,92.75
2022-12-04T06:08:17.146Z,93.94
2022-12-04T06:10:43.929Z,96.04
2022-12-04T06:13:10.668Z,94.68
2022-12-04T06:15:40.618Z,92.74
2022-12-04T06:18:07.769Z,92.39
2022-12-04T06:20:35.119Z,94.24
2022-12-04T06:23:01.970Z,95.76
2022-12-04T06:25:28.937Z,97.27
2022-12-04T06:27:55.757Z,99.27
2022-12-04T06:30:22.618Z,99.34
2022-12-04T06:32:49.398Z,96.33
2022-12-04T06:35:16.515Z,98.33
2022-12-04T06:37:43.319Z,96.50
2022-12-04T06:40:10.324Z,97.33
2022-12-04T06:42:37.162Z,98.14
2022-12-04T06:45:04.449Z,97.93
2022-12-04T06:47:31.153Z,99.51
2022-12-04T06:49:58.517Z,96.00
2022-12-04T06:52:25.425Z,97.48
2022-12-04T06:54:52.148Z,98.46
2022-12-04T06:57:18.892Z,97.63
2022-12-04T06:59:45.884Z,97.73
2022-12-04T07:02:12.687Z,97.31
2022-12-04T07:04:39.464Z,94.35
2022-12-04T07:07:08.415Z,97.01
2022-12-04T07:09:35.132Z,96.07
2022-12-04T07:12:01.857Z,96.40
2022-12-04T07:14:28.613Z,97.90
2022-12-04T07:16:55.413Z,98.45
2022-12-04T07:19:22.252Z,97.59
2022-12-04T07:21:48.956Z,96.48
2022-12-04T07:24:17.032Z,97.71
2022-12-04T07:26:43.882Z,96.20
2022-12-04T07:29:10.984Z,96.00
2022-12-04T07:31:38.207Z,98.07
2022-12-04T07:34:05.016Z,96.40
2022-12-04T07:36:31.752Z,96.19
2022-12-04T07:38:58.460Z,92.70
2022-12-04T07:41:25.190Z,94.81
2022-12-04T07:43:51.962Z,95.95
2022-12-04T07:46:20.142Z,97.18
2022-12-04T07:48:47.004Z,96.45
2022-12-04T07:51:18.836Z,97.37
2022-12-04T07:53:46.304Z,94.60
2022-12-04T07:56:13.508Z,96.71
2022-12-04T07:58:42.003Z,95.05
2022-12-04T08:01:13.527Z,94.53
2022-12-04T08:03:47.140Z,96.85
2022-12-04T08:06:15.391Z,95.74
2022-12-04T08:08:42.428Z,97.65
2022-12-04T08:11:10.181Z,98.03
2022-12-04T08:13:37.475Z,98.06
2022-12-04T08:16:04.885Z,96.88
2022-12-04T08:18:32.024Z,97.50
2022-12-04T08:21:06.297Z,98.56
2022-12-04T08:23:33.350Z,97.53
2022-12-04T08:26:00.899Z,96.83
2022-12-04T08:28:28.039Z,97.48
2022-12-04T08:30:54.980Z,96.19
2022-12-04T08:33:21.961Z,95.43
2022-12-04T08:35:48.853Z,95.98
2022-12-04T08:38:15.747Z,95.32
2022-12-04T08:40:42.782Z,95.99
2022-12-04T08:43:09.548Z,96.94
2022-12-04T08:45:36.256Z,97.85
2022-12-04T08:48:02.999Z,94.45
2022-12-04T08:50:29.788Z,94.05
2022-12-04T08:52:56.494Z,95.06
2022-12-04T08:55:23.473Z,96.53
2022-12-04T08:57:53.512Z,94.55
2022-12-04T09:00:20.465Z,94.38
2022-12-04T09:02:49.046Z,95.61
2022-12-04T09:05:15.958Z,95.58
2022-12-04T09:07:42.733Z,95.37
2022-12-04T09:10:09.864Z,93.65
2022-12-04T09:12:36.613Z,92.77
2022-12-04T09:15:03.557Z,93.01
2022-12-04T09:17:30.504Z,94.31
2022-12-04T09:20:00.985Z,92.99
2022-12-04T09:22:45.624Z,92.93
2022-12-04T09:25:15.143Z,91.40
2022-12-04T09:27:41.989Z,92.69
2022-12-04T09:30:09.431Z,94.19
2022-12-04T09:32:36.550Z,92.45
2022-12-04T09:35:03.953Z,91.53
2022-12-04T09:37:30.689Z,92.62
2022-12-04T09:39:57.643Z,91.64
2022-12-04T09:42:30.526Z,89.22
2022-12-04T09:45:04.231Z,89.50
2022-12-04T09:47:36.579Z,89.97
2022-12-04T09:50:12.467Z,90.28
2022-12-04T09:52:42.180Z,90.41
2022-12-04T09:55:13.113Z,89.80
2022-12-04T09:57:45.396Z,90.55
2022-12-04T10:00:13.786Z,91.30
2022-12-04T10:02:42.002Z,88.47
2022-12-04T10:05:16.372Z,85.89
2022-12-04T10:07:52.481Z,88.05
2022-12-04T10:10:38.102Z,90.13
2022-12-04T10:13:07.858Z,89.04
2022-12-04T10:15:57.990Z,86.23
2022-12-04T10:18:30.992Z,89.32
2022-12-04T10:20:57.699Z,90.66
2022-12-04T10:23:38.555Z,88.60
2022-12-04T10:26:09.562Z,88.38
2022-12-04T10:28:39.424Z,88.32
2022-12-04T10:31:10.412Z,89.43
2022-12-04T10:33:38.726Z,87.18
2022-12-04T10:36:05.677Z,89.72
2022-12-04T10:38:54.099Z,90.42
2022-12-04T10:41:39.834Z,88.44
2022-12-04T10:44:06.678Z,87.30
2022-12-04T10:46:34.988Z,86.96
2022-12-04T10:49:09.819Z,88.85
2022-12-04T10:51:39.593Z,86.10
2022-12-04T10:54:25.110Z,88.08
2022-12-04T10:56:53.991Z,87.12
2022-12-04T10:59:20.952Z,86.34
2022-12-04T11:01:48.081Z,87.02
2022-12-04T11:04:23.994Z,85.36
2022-12-04T11:06:52.061Z,87.93
2022-12-04T11:09:25.159Z,86.29
2022-12-04T11:11:52.823Z,86.03
2022-12-04T11:14:23.559Z,87.98
2022-12-04T11:16:59.959Z,86.59
2022-12-04T11:19:28.338Z,86.85
2022-12-04T11:21:56.617Z,85.66
2022-12-04T11:24:24.828Z,87.14
2022-12-04T11:26:52.615Z,87.42
2022-12-04T11:29:20.663Z,86.84
2022-12-04T11:31:48.802Z,85.75
2022-12-04T11:34:19.071Z,84.24
2022-12-04T11:36:50.728Z,85.60
2022-12-04T11:39:19.488Z,84.59
2022-12-04T11:41:46.386Z,84.84
2022-12-04T11:44:25.564Z,86.30
2022-12-04T11:46:54.234Z,84.57
2022-12-04T11:49:25.196Z,87.22
2022-12-04T11:52:18.416Z,87.91
2022-12-04T11:54:57.209Z,88.69
2022-12-04T11:57:30.604Z,88.37
2022-12-04T12:00:02.886Z,88.19
2022-12-04T12:02:29.791Z,88.10
2022-12-04T12:05:02.829Z,88.70
2022-12-04T12:07:30.748Z,87.49
2022-12-04T12:09:57.758Z,87.78
2022-12-04T12:12:47.841Z,86.08
2022-12-04T12:15:32.428Z,85.89
2022-12-04T12:18:04.916Z,86.67
2022-12-04T12:20:38.718Z,85.10
2022-12-04T12:23:11.431Z,82.96
2022-12-04T12:25:38.119Z,87.90
2022-12-04T12:28:04.917Z,83.74
2022-12-04T12:30:39.505Z,83.51
2022-12-04T12:33:08.938Z,83.63
2022-12-04T12:35:43.302Z,83.81
2022-12-04T12:38:22.337Z,84.99
2022-12-04T12:40:52.718Z,82.01
2022-12-04T12:43:37.206Z,83.13
2022-12-04T12:46:10.849Z,82.13
2022-12-04T12:48:43.437Z,82.71
2022-12-04T12:51:30.474Z,85.01
2022-12-04T12:54:02.240Z,85.43
2022-12-04T12:56:36.243Z,84.64
2022-12-04T12:59:04.618Z,82.73
2022-12-04T13:01:31.474Z,81.82
2022-12-04T13:04:13.573Z,86.63
2022-12-04T13:06:42.181Z,85.28
2022-12-04T13:09:27.824Z,87.78
2022-12-04T13:11:58.970Z,87.23
2022-12-04T13:14:25.681Z,86.76
2022-12-04T13:16:54.955Z,87.81
2022-12-04T13:19:27.081Z,88.14
2022-12-04T13:22:01.193Z,87.01
2022-12-04T13:24:54.260Z,89.53
2022-12-04T13:27:41.323Z,88.55
2022-12-04T13:30:14.755Z,87.25
2022-12-04T13:32:41.700Z,86.39
2022-12-04T13:35:20.613Z,85.48
2022-12-04T13:37:47.235Z,87.43
2022-12-04T13:40:26.759Z,84.76
2022-12-04T13:42:53.698Z,86.54
2022-12-04T13:45:27.894Z,86.70
2022-12-04T13:48:02.224Z,87.00
2022-12-04T13:50:30.796Z,87.29
2022-12-04T13:52:58.175Z,87.31
2022-12-04T13:55:24.855Z,84.59
2022-12-04T13:57:55.948Z,86.29
2022-12-04T14:00:27.761Z,86.24
2022-12-04T14:02:56.135Z,88.01
2022-12-04T14:05:27.356Z,87.24
2022-12-04T14:08:05.660Z,83.48
2022-12-04T14:10:38.956Z,86.17
2022-12-04T14:13:07.725Z,85.25
2022-12-04T14:15:36.356Z,84.58
2022-12-04T14:18:12.782Z,86.72
2022-12-04T14:20:40.390Z,84.08
2022-12-04T14:23:16.610Z,85.57
2022-12-04T14:25:43.816Z,84.73
2022-12-04T14:28:41.692Z,86.51
2022-12-04T14:31:09.087Z,85.93
2022-12-04T14:33:43.076Z,85.62
2022-12-04T14:36:20.784Z,86.46
2022-12-04T14:38:49.606Z,85.57
2022-12-04T14:41:23.955Z,88.37
2022-12-04T14:43:51.066Z,86.79
2022-12-04T14:46:28.338Z,87.47
2022-12-04T14:49:04.866Z,85.42
2022-12-04T14:51:37.471Z,89.74
2022-12-04T14:54:07.332Z,89.35
2022-12-04T14:56:57.494Z,86.83
2022-12-04T14:59:27.345Z,88.32
2022-12-04T15:01:55.357Z,89.91
2022-12-04T15:04:22.121Z,85.55
2022-12-04T15:06:53.136Z,86.67
2022-12-04T15:09:42.828Z,86.38
2022-12-04T15:12:35.525Z,87.50
2022-12-04T15:15:12.008Z,89.14
2022-12-04T15:17:38.836Z,90.50
2022-12-04T15:20:10.053Z,88.42
2022-12-04T15:22:37.008Z,90.10
2022-12-04T15:25:06.350Z,89.21
2022-12-04T15:27:33.376Z,89.80
2022-12-04T15:30:01.695Z,89.72
2022-12-04T15:32:30.042Z,89.11
2022-12-04T15:35:01.002Z,90.52
2022-12-04T15:37:29.898Z,89.19
2022-12-04T15:39:57.901Z,91.52
2022-12-04T15:42:24.821Z,91.08
2022-12-04T15:45:01.347Z,90.75
2022-12-04T15:47:29.920Z,89.41
2022-12-04T15:50:07.694Z,92.43
2022-12-04T15:52:35.703Z,88.89
2022-12-04T15:55:06.466Z,86.22
2022-12-04T15:57:42.999Z,86.50
2022-12-04T16:00:21.903Z,86.16
2022-12-04T16:02:48.947Z,84.90
2022-12-04T16:05:21.520Z,84.02
2022-12-04T16:07:52.722Z,84.75
2022-12-04T16:10:30.270Z,87.30
2022-12-04T16:13:01.687Z,86.84
2022-12-04T16:15:38.692Z,86.64
2022-12-04T16:18:06.825Z,87.32
2022-12-04T16:20:37.245Z,88.42
2022-12-04T16:23:04.195Z,88.77
2022-12-04T16:25:31.904Z,90.36
2022-12-04T16:27:59.112Z,88.65
2022-12-04T16:30:26.318Z,90.03
2022-12-04T16:32:53.319Z,89.84
2022-12-04T16:35:20.679Z,88.32
2022-12-04T16:37:47.423Z,92.17
2022-12-04T16:40:15.190Z,91.50
2022-12-04T16:42:42.446Z,90.79
2022-12-04T16:45:32.734Z,90.05
2022-12-04T16:47:59.788Z,90.45
2022-12-04T16:50:27.389Z,89.33
2022-12-04T16:52:54.265Z,90.72
2022-12-04T16:55:24.675Z,90.51
2022-12-04T16:57:51.604Z,90.19
2022-12-04T17:00:18.822Z,89.81
2022-12-04T17:02:46.024Z,88.95
2022-12-04T17:05:17.956Z,90.96
2022-12-04T17:07:44.770Z,90.58
2022-12-04T17:10:13.064Z,85.98
2022-12-04T17:12:40.468Z,88.83
2022-12-04T17:15:07.674Z,87.74
2022-12-04T17:17:34.441Z,90.62
2022-12-04T17:20:01.257Z,89.87
2022-12-04T17:22:27.926Z,88.32
2022-12-04T17:24:57.067Z,86.75
2022-12-04T17:27:24.369Z,87.09
2022-12-04T17:29:51.093Z,91.35
2022-12-04T17:32:18.082Z,90.04
2022-12-04T17:34:44.811Z,89.46
2022-12-04T17:37:11.601Z,90.29
2022-12-04T17:39:38.312Z,89.62
2022-12-04T17:42:05.019Z,87.87
2022-12-04T17:44:31.695Z,90.97
2022-12-04T17:46:58.551Z,90.69
2022-12-04T17:49:25.456Z,88.21
2022-12-04T17:51:52.208Z,89.99
2022-12-04T17:54:19.107Z,91.17
2022-12-04T17:56:50.322Z,89.84
2022-12-04T17:59:19.086Z,90.21
2022-12-04T18:01:45.864Z,88.93
2022-12-04T18:04:12.621Z,90.19
2022-12-04T18:06:40.829Z,92.70
2022-12-04T18:09:08.377Z,92.36
2022-12-04T18:11:36.020Z,90.83
2022-12-04T18:14:11.523Z,91.04
2022-12-04T18:16:39.984Z,88.96
2022-12-04T18:19:07.056Z,87.77
2022-12-04T18:21:34.663Z,90.29
2022-12-04T18:24:03.102Z,91.32
2022-12-04T18:26:33.822Z,92.80
2022-12-04T18:29:00.596Z,90.60
2022-12-04T18:31:27.367Z,90.21
2022-12-04T18:33:54.204Z,91.98
2022-12-04T18:36:22.339Z,89.57
2022-12-04T18:38:53.884Z,89.91
2022-12-04T18:41:20.671Z,89.42
2022-12-04T18:43:47.523Z,89.49
2022-12-04T18:46:15.441Z,89.80
2022-12-04T18:48:42.554Z,90.82
2022-12-04T18:51:15.519Z,89.43
2022-12-04T18:53:42.812Z,90.64
2022-12-04T18:56:09.853Z,90.53
2022-12-04T18:58:36.608Z,92.12
2022-12-04T19:01:07.220Z,92.91
2022-12-04T19:03:34.564Z,91.63
2022-12-04T19:06:01.436Z,91.48
2022-12-04T19:08:33.115Z,89.48
2022-12-04T19:11:07.119Z,89.22
2022-12-04T19:13:34.465Z,93.25
2022-12-04T19:16:01.349Z,92.05
2022-12-04T19:18:28.547Z,92.52
2022-12-04T19:20:55.963Z,91.69
2022-12-04T19:23:22.970Z,91.87
2022-12-04T19:25:56.529Z,94.34
2022-12-04T19:28:24.051Z,91.07
2022-12-04T19:30:51.461Z,91.88
2022-12-04T19:33:18.209Z,93.69
2022-12-04T19:35:55.738Z,91.72
2022-12-04T19:38:22.536Z,94.06
2022-12-04T19:40:49.240Z,91.64
2022-12-04T19:43:15.991Z,92.61
2022-12-04T19:45:47.979Z,91.93
2022-12-04T19:48:14.682Z,93.03
2022-12-04T19:50:41.452Z,89.45
2022-12-04T19:53:08.171Z,90.72
2022-12-04T19:55:35.997Z,91.28
2022-12-04T19:58:02.891Z,90.98
2022-12-04T20:00:29.627Z,90.23
2022-12-04T20:02:56.484Z,92.34
2022-12-04T20:05:23.268Z,92.96
2022-12-04T20:07:50.038Z,92.07
2022-12-04T20:10:17.275Z,88.71
2022-12-04T20:12:44.043Z,91.25
2022-12-04T20:15:10.889Z,91.66
2022-12-04T20:17:37.869Z,91.26
2022-12-04T20:20:05.054Z,92.79
2022-12-04T20:22:31.935Z,93.92
2022-12-04T20:24:58.631Z,93.04
2022-12-04T20:27:31.639Z,94.07
2022-12-04T20:29:58.564Z,94.04
2022-12-04T20:32:25.511Z,91.76
2022-12-04T20:34:52.414Z,89.80
2022-12-04T20:37:19.195Z,89.99
2022-12-04T20:39:45.937Z,90.35
2022-12-04T20:42:12.679Z,92.60
2022-12-04T20:44:39.457Z,89.84
2022-12-04T20:47:06.206Z,90.34
2022-12-04T20:49:33.057Z,89.42
2022-12-04T20:51:59.781Z,91.45
2022-12-04T20:54:26.639Z,91.54
2022-12-04T20:56:53.740Z,90.76
2022-12-04T20:59:22.152Z,90.49
2022-12-04T21:01:49.452Z,92.12
2022-12-04T21:04:18.146Z,91.91
2022-12-04T21:06:45.437Z,91.54
2022-12-04T21:09:13.602Z,90.04
2022-12-04T21:11:44.759Z,91.36
2022-12-04T21:14:31.657Z,92.88
2022-12-04T21:16:58.737Z,90.04
2022-12-04T21:19:26.321Z,88.28
2022-12-04T21:21:53.431Z,88.28
2022-12-04T21:24:21.361Z,89.72
2022-12-04T21:26:48.147Z,88.42
2022-12-04T21:29:15.577Z,89.40
2022-12-04T21:31:42.851Z,87.78
2022-12-04T21:34:10.980Z,86.78
2022-12-04T21:36:37.733Z,86.37
2022-12-04T21:39:04.971Z,87.06
2022-12-04T21:41:50.442Z,87.96
2022-12-04T21:44:18.600Z,88.21
2022-12-04T21:46:45.749Z,88.72
2022-12-04T21:49:13.919Z,90.92
2022-12-04T21:51:56.852Z,91.56
2022-12-04T21:54:24.949Z,91.70
2022-12-04T21:56:51.867Z,88.11
2022-12-04T21:59:18.629Z,88.41
2022-12-04T22:01:45.516Z,89.13
2022-12-04T22:04:12.803Z,89.77
2022-12-04T22:06:39.698Z,88.99
2022-12-04T22:09:07.397Z,90.31
2022-12-04T22:11:34.179Z,88.66
2022-12-04T22:14:01.104Z,89.66
2022-12-04T22:16:30.502Z,86.23
2022-12-04T22:18:58.467Z,86.03
2022-12-04T22:21:25.951Z,85.81
2022-12-04T22:24:03.140Z,87.10
2022-12-04T22:26:30.423Z,86.99
2022-12-04T22:28:57.827Z,84.73
2022-12-04T22:31:26.096Z,86.01
2022-12-04T22:33:54.024Z,84.55
2022-12-04T22:36:23.005Z,87.55
2022-12-04T22:39:08.806Z,86.83
2022-12-04T22:41:36.443Z,86.32
2022-12-04T22:44:03.197Z,86.12
2022-12-04T22:46:30.206Z,87.62
2022-12-04T22:48:58.395Z,86.83
2022-12-04T22:51:25.241Z,86.79
2022-12-04T22:53:53.172Z,87.27
2022-12-04T22:56:21.366Z,88.09
2022-12-04T22:58:48.054Z,88.40
2022-12-04T23:01:16.845Z,87.77
2022-12-04T23:03:43.580Z,89.12
2022-12-04T23:06:10.448Z,85.88
2022-12-04T23:08:38.083Z,84.69
2022-12-04T23:11:09.070Z,85.49
2022-12-04T23:13:36.148Z,84.58
2022-12-04T23:16:07.913Z,82.83
2022-12-04T23:18:36.634Z,81.71
2022-12-04T23:21:07.865Z,82.02
2022-12-04T23:23:35.516Z,82.27
2022-12-04T23:26:03.658Z,82.33
2022-12-04T23:28:30.479Z,81.41
2022-12-04T23:30:57.512Z,81.77
2022-12-04T23:33:24.439Z,83.01
2022-12-04T23:35:52.459Z,86.40
2022-12-04T23:38:19.731Z,83.77
2022-12-04T23:40:46.548Z,84.49
2022-12-04T23:43:13.474Z,84.79
2022-12-04T23:45:40.313Z,85.26
2022-12-04T23:48:07.164Z,84.58
2022-12-04T23:50:33.947Z,84.07
2022-12-04T23:53:01.011Z,82.67
2022-12-04T23:55:33.821Z,81.44
2022-12-04T23:58:01.215Z,80.48
